sensor_id;sensor_type;location;lat;lon;timestamp;P1;durP1;ratioP1;P2;durP2;ratioP2
30681;SDS011;17439;48.092;11.842;2024-01-15T00:01:30;4.90;;;2.00;;
30681;SDS011;17439;48.092;11.842;2024-01-15T00:03:56;10.77;;;1.70;;
30681;SDS011;17439;48.092;11.842;2024-01-15T00:06:23;5.45;;;2.42;;
30681;SDS011;17439;48.092;11.842;2024-01-15T00:08:50;5.00;;;2.35;;
30681;SDS011;17439;48.092;11.842;2024-01-15T00:11:17;6.55;;;2.58;;
30681;SDS011;17439;48.092;11.842;2024-01-15T00:13:43;5.15;;;2.72;;
30681;SDS011;17439;48.092;11.842;2024-01-15T00:16:10;8.52;;;2.72;;
30681;SDS011;17439;48.092;11.842;2024-01-15T00:18:37;5.20;;;2.20;;
30681;SDS011;17439;48.092;11.842;2024-01-15T00:21:04;5.95;;;2.47;;
30681;SDS011;17439;48.092;11.842;2024-01-15T00:23:31;7.88;;;3.13;;
30681;SDS011;17439;48.092;11.842;2024-01-15T00:25:57;6.57;;;2.95;;
30681;SDS011;17439;48.092;11.842;2024-01-15T00:28:24;6.32;;;3.03;;
30681;SDS011;17439;48.092;11.842;2024-01-15T00:30:51;8.70;;;3.22;;
30681;SDS011;17439;48.092;11.842;2024-01-15T00:33:18;9.02;;;3.47;;
30681;SDS011;17439;48.092;11.842;2024-01-15T00:35:44;12.13;;;3.63;;
30681;SDS011;17439;48.092;11.842;2024-01-15T00:38:11;7.80;;;3.70;;
30681;SDS011;17439;48.092;11.842;2024-01-15T00:40:38;11.70;;;4.45;;
30681;SDS011;17439;48.092;11.842;2024-01-15T00:43:05;11.05;;;4.57;;
30681;SDS011;17439;48.092;11.842;2024-01-15T00:45:31;9.50;;;3.40;;
30681;SDS011;17439;48.092;11.842;2024-01-15T00:47:58;12.30;;;4.53;;
30681;SDS011;17439;48.092;11.842;2024-01-15T00:50:25;12.55;;;4.32;;
30681;SDS011;17439;48.092;11.842;2024-01-15T00:52:52;12.50;;;4.40;;
30681;SDS011;17439;48.092;11.842;2024-01-15T00:55:18;11.02;;;4.20;;
30681;SDS011;17439;48.092;11.842;2024-01-15T00:57:45;14.43;;;4.80;;
30681;SDS011;17439;48.092;11.842;2024-01-15T01:00:12;10.98;;;4.30;;
30681;SDS011;17439;48.092;11.842;2024-01-15T01:02:39;11.35;;;4.47;;
30681;SDS011;17439;48.092;11.842;2024-01-15T01:05:06;11.98;;;4.45;;
30681;SDS011;17439;48.092;11.842;2024-01-15T01:07:33;12.50;;;5.13;;
30681;SDS011;17439;48.092;11.842;2024-01-15T01:10:00;18.42;;;6.45;;
30681;SDS011;17439;48.092;11.842;2024-01-15T01:12:27;16.27;;;6.60;;
30681;SDS011;17439;48.092;11.842;2024-01-15T01:14:54;12.65;;;4.75;;
30681;SDS011;17439;48.092;11.842;2024-01-15T01:17:21;13.40;;;5.78;;
30681;SDS011;17439;48.092;11.842;2024-01-15T01:19:49;12.00;;;5.35;;
30681;SDS011;17439;48.092;11.842;2024-01-15T01:24:43;15.73;;;4.82;;
30681;SDS011;17439;48.092;11.842;2024-01-15T01:27:09;17.95;;;6.85;;
30681;SDS011;17439;48.092;11.842;2024-01-15T01:29:36;16.67;;;6.43;;
30681;SDS011;17439;48.092;11.842;2024-01-15T01:32:03;17.30;;;7.18;;
30681;SDS011;17439;48.092;11.842;2024-01-15T01:34:32;21.42;;;8.32;;
30681;SDS011;17439;48.092;11.842;2024-01-15T01:37:00;17.95;;;7.20;;
30681;SDS011;17439;48.092;11.842;2024-01-15T01:39:27;18.55;;;7.22;;
30681;SDS011;17439;48.092;11.842;2024-01-15T01:41:53;20.40;;;8.02;;
30681;SDS011;17439;48.092;11.842;2024-01-15T01:44:20;24.80;;;8.18;;
30681;SDS011;17439;48.092;11.842;2024-01-15T01:46:47;19.20;;;6.78;;
30681;SDS011;17439;48.092;11.842;2024-01-15T01:49:14;18.30;;;7.27;;
30681;SDS011;17439;48.092;11.842;2024-01-15T01:51:41;17.33;;;7.00;;
30681;SDS011;17439;48.092;11.842;2024-01-15T01:54:08;19.95;;;7.53;;
30681;SDS011;17439;48.092;11.842;2024-01-15T01:56:36;21.67;;;6.63;;
30681;SDS011;17439;48.092;11.842;2024-01-15T01:59:03;16.67;;;7.38;;
30681;SDS011;17439;48.092;11.842;2024-01-15T02:01:31;18.55;;;7.03;;
30681;SDS011;17439;48.092;11.842;2024-01-15T02:03:58;16.88;;;6.18;;
30681;SDS011;17439;48.092;11.842;2024-01-15T02:06:26;18.48;;;6.70;;
30681;SDS011;17439;48.092;11.842;2024-01-15T02:08:53;19.48;;;6.85;;
30681;SDS011;17439;48.092;11.842;2024-01-15T02:11:20;18.17;;;5.85;;
30681;SDS011;17439;48.092;11.842;2024-01-15T02:13:47;14.45;;;5.63;;
30681;SDS011;17439;48.092;11.842;2024-01-15T02:16:14;18.67;;;7.05;;
30681;SDS011;17439;48.092;11.842;2024-01-15T02:18:45;16.75;;;6.30;;
30681;SDS011;17439;48.092;11.842;2024-01-15T02:21:12;16.15;;;5.10;;
30681;SDS011;17439;48.092;11.842;2024-01-15T02:23:39;15.27;;;5.82;;
30681;SDS011;17439;48.092;11.842;2024-01-15T02:26:06;20.55;;;6.82;;
30681;SDS011;17439;48.092;11.842;2024-01-15T02:28:34;12.90;;;5.57;;
30681;SDS011;17439;48.092;11.842;2024-01-15T02:31:01;17.00;;;6.68;;
30681;SDS011;17439;48.092;11.842;2024-01-15T02:33:28;17.58;;;5.95;;
30681;SDS011;17439;48.092;11.842;2024-01-15T02:35:54;16.70;;;6.35;;
30681;SDS011;17439;48.092;11.842;2024-01-15T02:38:21;13.68;;;5.97;;
30681;SDS011;17439;48.092;11.842;2024-01-15T02:40:49;17.15;;;6.45;;
30681;SDS011;17439;48.092;11.842;2024-01-15T02:43:16;15.55;;;5.90;;
30681;SDS011;17439;48.092;11.842;2024-01-15T02:45:42;18.38;;;6.15;;
30681;SDS011;17439;48.092;11.842;2024-01-15T02:48:09;13.65;;;5.30;;
30681;SDS011;17439;48.092;11.842;2024-01-15T02:50:36;16.52;;;5.63;;
30681;SDS011;17439;48.092;11.842;2024-01-15T02:53:03;12.55;;;5.45;;
30681;SDS011;17439;48.092;11.842;2024-01-15T02:55:30;14.53;;;5.67;;
30681;SDS011;17439;48.092;11.842;2024-01-15T02:57:57;17.42;;;6.68;;
30681;SDS011;17439;48.092;11.842;2024-01-15T03:00:23;17.10;;;5.53;;
30681;SDS011;17439;48.092;11.842;2024-01-15T03:02:50;16.17;;;5.95;;
30681;SDS011;17439;48.092;11.842;2024-01-15T03:05:17;15.63;;;5.95;;
30681;SDS011;17439;48.092;11.842;2024-01-15T03:07:44;17.48;;;5.82;;
30681;SDS011;17439;48.092;11.842;2024-01-15T03:10:11;17.08;;;6.07;;
30681;SDS011;17439;48.092;11.842;2024-01-15T03:12:38;12.43;;;4.80;;
30681;SDS011;17439;48.092;11.842;2024-01-15T03:15:05;17.98;;;5.95;;
30681;SDS011;17439;48.092;11.842;2024-01-15T03:17:31;15.15;;;5.63;;
30681;SDS011;17439;48.092;11.842;2024-01-15T03:19:58;15.18;;;6.03;;
30681;SDS011;17439;48.092;11.842;2024-01-15T03:22:25;13.38;;;5.20;;
30681;SDS011;17439;48.092;11.842;2024-01-15T03:24:52;12.63;;;4.50;;
30681;SDS011;17439;48.092;11.842;2024-01-15T03:27:19;15.68;;;5.97;;
30681;SDS011;17439;48.092;11.842;2024-01-15T03:29:46;14.88;;;5.55;;
30681;SDS011;17439;48.092;11.842;2024-01-15T03:32:13;12.48;;;4.38;;
30681;SDS011;17439;48.092;11.842;2024-01-15T03:34:39;11.98;;;4.20;;
30681;SDS011;17439;48.092;11.842;2024-01-15T03:37:06;11.90;;;4.80;;
30681;SDS011;17439;48.092;11.842;2024-01-15T03:39:33;8.80;;;3.50;;
30681;SDS011;17439;48.092;11.842;2024-01-15T03:42:00;10.38;;;4.22;;
30681;SDS011;17439;48.092;11.842;2024-01-15T03:44:27;13.48;;;4.50;;
30681;SDS011;17439;48.092;11.842;2024-01-15T03:46:53;12.80;;;5.45;;
30681;SDS011;17439;48.092;11.842;2024-01-15T03:49:20;12.43;;;4.65;;
30681;SDS011;17439;48.092;11.842;2024-01-15T03:51:47;10.10;;;3.88;;
30681;SDS011;17439;48.092;11.842;2024-01-15T03:54:14;9.68;;;3.90;;
30681;SDS011;17439;48.092;11.842;2024-01-15T03:56:45;12.48;;;3.85;;
30681;SDS011;17439;48.092;11.842;2024-01-15T03:59:11;14.68;;;5.32;;
30681;SDS011;17439;48.092;11.842;2024-01-15T04:01:38;9.40;;;3.95;;
30681;SDS011;17439;48.092;11.842;2024-01-15T04:04:05;13.60;;;5.07;;
30681;SDS011;17439;48.092;11.842;2024-01-15T04:06:32;10.70;;;3.28;;
30681;SDS011;17439;48.092;11.842;2024-01-15T04:08:59;10.23;;;4.80;;
30681;SDS011;17439;48.092;11.842;2024-01-15T04:11:25;7.80;;;3.40;;
30681;SDS011;17439;48.092;11.842;2024-01-15T04:13:52;10.20;;;4.30;;
30681;SDS011;17439;48.092;11.842;2024-01-15T04:16:19;9.80;;;3.90;;
30681;SDS011;17439;48.092;11.842;2024-01-15T04:18:45;9.93;;;3.92;;
30681;SDS011;17439;48.092;11.842;2024-01-15T04:21:12;12.65;;;4.45;;
30681;SDS011;17439;48.092;11.842;2024-01-15T04:23:39;9.13;;;3.60;;
30681;SDS011;17439;48.092;11.842;2024-01-15T04:26:06;11.60;;;4.78;;
30681;SDS011;17439;48.092;11.842;2024-01-15T04:28:32;11.38;;;4.20;;
30681;SDS011;17439;48.092;11.842;2024-01-15T04:30:59;10.88;;;4.25;;
30681;SDS011;17439;48.092;11.842;2024-01-15T04:33:26;12.00;;;4.00;;
30681;SDS011;17439;48.092;11.842;2024-01-15T04:35:53;12.65;;;4.15;;
30681;SDS011;17439;48.092;11.842;2024-01-15T04:38:20;9.73;;;3.97;;
30681;SDS011;17439;48.092;11.842;2024-01-15T04:40:47;14.52;;;4.60;;
30681;SDS011;17439;48.092;11.842;2024-01-15T04:43:13;12.85;;;4.53;;
30681;SDS011;17439;48.092;11.842;2024-01-15T04:45:40;11.43;;;4.18;;
30681;SDS011;17439;48.092;11.842;2024-01-15T04:48:07;8.90;;;3.95;;
30681;SDS011;17439;48.092;11.842;2024-01-15T04:50:34;9.55;;;4.63;;
30681;SDS011;17439;48.092;11.842;2024-01-15T04:53:00;10.52;;;4.10;;
30681;SDS011;17439;48.092;11.842;2024-01-15T04:55:27;10.98;;;3.80;;
30681;SDS011;17439;48.092;11.842;2024-01-15T04:57:54;11.93;;;4.45;;
30681;SDS011;17439;48.092;11.842;2024-01-15T05:00:20;9.27;;;3.28;;
30681;SDS011;17439;48.092;11.842;2024-01-15T05:02:47;8.45;;;3.45;;
30681;SDS011;17439;48.092;11.842;2024-01-15T05:05:14;8.77;;;4.00;;
30681;SDS011;17439;48.092;11.842;2024-01-15T05:07:41;8.00;;;3.17;;
30681;SDS011;17439;48.092;11.842;2024-01-15T05:10:08;10.23;;;4.15;;
30681;SDS011;17439;48.092;11.842;2024-01-15T05:12:35;14.30;;;4.00;;
30681;SDS011;17439;48.092;11.842;2024-01-15T05:15:01;10.23;;;4.13;;
30681;SDS011;17439;48.092;11.842;2024-01-15T05:17:29;11.35;;;4.05;;
30681;SDS011;17439;48.092;11.842;2024-01-15T05:19:55;9.95;;;3.38;;
30681;SDS011;17439;48.092;11.842;2024-01-15T05:22:22;14.57;;;4.28;;
30681;SDS011;17439;48.092;11.842;2024-01-15T05:24:49;8.07;;;3.72;;
30681;SDS011;17439;48.092;11.842;2024-01-15T05:27:16;11.30;;;3.38;;
30681;SDS011;17439;48.092;11.842;2024-01-15T05:29:43;8.90;;;3.95;;
30681;SDS011;17439;48.092;11.842;2024-01-15T05:32:09;12.93;;;3.60;;
30681;SDS011;17439;48.092;11.842;2024-01-15T05:34:36;7.70;;;3.10;;
30681;SDS011;17439;48.092;11.842;2024-01-15T05:37:03;7.38;;;3.92;;
30681;SDS011;17439;48.092;11.842;2024-01-15T05:39:30;6.88;;;3.35;;
30681;SDS011;17439;48.092;11.842;2024-01-15T05:41:57;10.38;;;3.42;;
30681;SDS011;17439;48.092;11.842;2024-01-15T05:46:51;10.10;;;3.30;;
30681;SDS011;17439;48.092;11.842;2024-01-15T05:49:18;11.10;;;3.03;;
30681;SDS011;17439;48.092;11.842;2024-01-15T05:51:45;8.43;;;3.45;;
30681;SDS011;17439;48.092;11.842;2024-01-15T05:54:11;8.77;;;2.88;;
30681;SDS011;17439;48.092;11.842;2024-01-15T05:56:38;14.88;;;3.35;;
30681;SDS011;17439;48.092;11.842;2024-01-15T05:59:05;10.43;;;3.38;;
30681;SDS011;17439;48.092;11.842;2024-01-15T06:01:32;7.78;;;3.10;;
30681;SDS011;17439;48.092;11.842;2024-01-15T06:03:58;5.22;;;2.63;;
30681;SDS011;17439;48.092;11.842;2024-01-15T06:06:25;7.63;;;3.35;;
30681;SDS011;17439;48.092;11.842;2024-01-15T06:08:52;5.70;;;2.83;;
30681;SDS011;17439;48.092;11.842;2024-01-15T06:11:19;6.30;;;2.60;;
30681;SDS011;17439;48.092;11.842;2024-01-15T06:13:46;6.80;;;3.20;;
30681;SDS011;17439;48.092;11.842;2024-01-15T06:16:13;9.73;;;3.38;;
30681;SDS011;17439;48.092;11.842;2024-01-15T06:18:41;6.80;;;3.53;;
30681;SDS011;17439;48.092;11.842;2024-01-15T06:21:08;7.47;;;3.13;;
30681;SDS011;17439;48.092;11.842;2024-01-15T06:23:34;11.50;;;3.33;;
30681;SDS011;17439;48.092;11.842;2024-01-15T06:26:01;9.20;;;3.45;;
30681;SDS011;17439;48.092;11.842;2024-01-15T06:28:28;7.03;;;3.38;;
30681;SDS011;17439;48.092;11.842;2024-01-15T06:30:55;7.65;;;3.15;;
30681;SDS011;17439;48.092;11.842;2024-01-15T06:33:21;10.07;;;3.28;;
30681;SDS011;17439;48.092;11.842;2024-01-15T06:35:48;9.25;;;3.10;;
30681;SDS011;17439;48.092;11.842;2024-01-15T06:38:15;6.65;;;3.13;;
30681;SDS011;17439;48.092;11.842;2024-01-15T06:40:42;6.38;;;3.00;;
30681;SDS011;17439;48.092;11.842;2024-01-15T06:43:08;8.70;;;3.38;;
30681;SDS011;17439;48.092;11.842;2024-01-15T06:45:35;8.02;;;3.03;;
30681;SDS011;17439;48.092;11.842;2024-01-15T06:48:02;11.27;;;4.22;;
30681;SDS011;17439;48.092;11.842;2024-01-15T06:50:29;7.13;;;2.73;;
30681;SDS011;17439;48.092;11.842;2024-01-15T06:52:56;6.90;;;3.38;;
30681;SDS011;17439;48.092;11.842;2024-01-15T06:55:22;9.30;;;3.53;;
30681;SDS011;17439;48.092;11.842;2024-01-15T06:57:49;9.88;;;3.72;;
30681;SDS011;17439;48.092;11.842;2024-01-15T07:00:16;6.85;;;3.28;;
30681;SDS011;17439;48.092;11.842;2024-01-15T07:02:43;6.38;;;2.83;;
30681;SDS011;17439;48.092;11.842;2024-01-15T07:05:10;6.35;;;3.47;;
30681;SDS011;17439;48.092;11.842;2024-01-15T07:07:37;7.60;;;3.22;;
30681;SDS011;17439;48.092;11.842;2024-01-15T07:10:04;7.72;;;3.10;;
30681;SDS011;17439;48.092;11.842;2024-01-15T07:12:31;8.60;;;3.00;;
30681;SDS011;17439;48.092;11.842;2024-01-15T07:14:58;9.95;;;3.40;;
30681;SDS011;17439;48.092;11.842;2024-01-15T07:17:25;9.20;;;2.90;;
30681;SDS011;17439;48.092;11.842;2024-01-15T07:19:51;7.50;;;3.30;;
30681;SDS011;17439;48.092;11.842;2024-01-15T07:22:18;9.52;;;4.25;;
30681;SDS011;17439;48.092;11.842;2024-01-15T07:24:45;7.38;;;3.30;;
30681;SDS011;17439;48.092;11.842;2024-01-15T07:27:12;9.20;;;3.53;;
30681;SDS011;17439;48.092;11.842;2024-01-15T07:29:38;8.32;;;4.57;;
30681;SDS011;17439;48.092;11.842;2024-01-15T07:32:05;10.95;;;3.55;;
30681;SDS011;17439;48.092;11.842;2024-01-15T07:34:32;6.72;;;3.10;;
30681;SDS011;17439;48.092;11.842;2024-01-15T07:36:59;10.82;;;3.60;;
30681;SDS011;17439;48.092;11.842;2024-01-15T07:39:26;7.82;;;3.65;;
30681;SDS011;17439;48.092;11.842;2024-01-15T07:41:52;8.27;;;3.55;;
30681;SDS011;17439;48.092;11.842;2024-01-15T07:44:19;10.77;;;4.40;;
30681;SDS011;17439;48.092;11.842;2024-01-15T07:46:46;10.02;;;3.50;;
30681;SDS011;17439;48.092;11.842;2024-01-15T07:49:13;7.05;;;2.92;;
30681;SDS011;17439;48.092;11.842;2024-01-15T07:51:41;10.30;;;3.70;;
30681;SDS011;17439;48.092;11.842;2024-01-15T07:54:07;8.30;;;3.58;;
30681;SDS011;17439;48.092;11.842;2024-01-15T07:56:34;9.20;;;3.30;;
30681;SDS011;17439;48.092;11.842;2024-01-15T07:59:19;9.18;;;3.33;;
30681;SDS011;17439;48.092;11.842;2024-01-15T08:01:45;7.40;;;3.28;;
30681;SDS011;17439;48.092;11.842;2024-01-15T08:04:12;10.55;;;3.53;;
30681;SDS011;17439;48.092;11.842;2024-01-15T08:06:39;8.00;;;3.80;;
30681;SDS011;17439;48.092;11.842;2024-01-15T08:09:06;11.55;;;4.38;;
30681;SDS011;17439;48.092;11.842;2024-01-15T08:11:33;7.85;;;3.25;;
30681;SDS011;17439;48.092;11.842;2024-01-15T08:14:00;6.40;;;2.72;;
30681;SDS011;17439;48.092;11.842;2024-01-15T08:16:27;6.40;;;2.80;;
30681;SDS011;17439;48.092;11.842;2024-01-15T08:18:53;11.10;;;3.78;;
30681;SDS011;17439;48.092;11.842;2024-01-15T08:21:20;11.23;;;4.00;;
30681;SDS011;17439;48.092;11.842;2024-01-15T08:23:47;10.43;;;3.10;;
30681;SDS011;17439;48.092;11.842;2024-01-15T08:26:14;7.97;;;3.17;;
30681;SDS011;17439;48.092;11.842;2024-01-15T08:28:41;11.98;;;3.78;;
30681;SDS011;17439;48.092;11.842;2024-01-15T08:31:07;11.63;;;4.22;;
30681;SDS011;17439;48.092;11.842;2024-01-15T08:33:34;12.15;;;3.97;;
30681;SDS011;17439;48.092;11.842;2024-01-15T08:36:01;15.82;;;4.57;;
30681;SDS011;17439;48.092;11.842;2024-01-15T08:38:28;9.27;;;3.45;;
30681;SDS011;17439;48.092;11.842;2024-01-15T08:40:55;10.45;;;4.05;;
30681;SDS011;17439;48.092;11.842;2024-01-15T08:43:21;9.25;;;3.72;;
30681;SDS011;17439;48.092;11.842;2024-01-15T08:45:48;9.30;;;4.20;;
30681;SDS011;17439;48.092;11.842;2024-01-15T08:48:15;8.88;;;3.80;;
30681;SDS011;17439;48.092;11.842;2024-01-15T08:50:42;9.18;;;3.80;;
30681;SDS011;17439;48.092;11.842;2024-01-15T08:53:09;10.45;;;4.13;;
30681;SDS011;17439;48.092;11.842;2024-01-15T08:55:35;8.63;;;3.33;;
30681;SDS011;17439;48.092;11.842;2024-01-15T08:58:02;9.70;;;3.00;;
30681;SDS011;17439;48.092;11.842;2024-01-15T09:00:29;9.10;;;3.58;;
30681;SDS011;17439;48.092;11.842;2024-01-15T09:02:56;9.70;;;3.20;;
30681;SDS011;17439;48.092;11.842;2024-01-15T09:05:23;10.90;;;2.95;;
30681;SDS011;17439;48.092;11.842;2024-01-15T09:07:50;8.52;;;3.22;;
30681;SDS011;17439;48.092;11.842;2024-01-15T09:10:16;8.68;;;3.35;;
30681;SDS011;17439;48.092;11.842;2024-01-15T09:12:43;9.88;;;4.32;;
30681;SDS011;17439;48.092;11.842;2024-01-15T09:15:10;8.77;;;3.60;;
30681;SDS011;17439;48.092;11.842;2024-01-15T09:17:37;9.68;;;3.75;;
30681;SDS011;17439;48.092;11.842;2024-01-15T09:20:04;8.27;;;3.40;;
30681;SDS011;17439;48.092;11.842;2024-01-15T09:22:31;10.80;;;2.95;;
30681;SDS011;17439;48.092;11.842;2024-01-15T09:24:58;10.27;;;4.10;;
30681;SDS011;17439;48.092;11.842;2024-01-15T09:27:25;13.68;;;3.42;;
30681;SDS011;17439;48.092;11.842;2024-01-15T09:29:52;9.13;;;3.17;;
30681;SDS011;17439;48.092;11.842;2024-01-15T09:32:19;8.63;;;4.03;;
30681;SDS011;17439;48.092;11.842;2024-01-15T09:34:46;7.82;;;2.70;;
30681;SDS011;17439;48.092;11.842;2024-01-15T09:37:14;8.80;;;3.83;;
30681;SDS011;17439;48.092;11.842;2024-01-15T09:42:27;8.13;;;3.47;;
30681;SDS011;17439;48.092;11.842;2024-01-15T09:44:55;10.30;;;3.95;;
30681;SDS011;17439;48.092;11.842;2024-01-15T09:47:21;8.07;;;3.83;;
30681;SDS011;17439;48.092;11.842;2024-01-15T09:49:49;8.03;;;3.50;;
30681;SDS011;17439;48.092;11.842;2024-01-15T09:52:18;9.27;;;3.88;;
30681;SDS011;17439;48.092;11.842;2024-01-15T09:54:46;12.00;;;4.15;;
30681;SDS011;17439;48.092;11.842;2024-01-15T09:57:14;10.75;;;4.47;;
30681;SDS011;17439;48.092;11.842;2024-01-15T09:59:41;8.55;;;3.55;;
30681;SDS011;17439;48.092;11.842;2024-01-15T10:02:10;11.90;;;3.90;;
30681;SDS011;17439;48.092;11.842;2024-01-15T10:04:39;9.27;;;4.00;;
30681;SDS011;17439;48.092;11.842;2024-01-15T10:07:06;12.75;;;4.55;;
30681;SDS011;17439;48.092;11.842;2024-01-15T10:09:34;9.43;;;3.58;;
30681;SDS011;17439;48.092;11.842;2024-01-15T10:12:01;9.65;;;3.50;;
30681;SDS011;17439;48.092;11.842;2024-01-15T10:14:28;8.60;;;3.45;;
30681;SDS011;17439;48.092;11.842;2024-01-15T10:19:23;10.07;;;3.35;;
30681;SDS011;17439;48.092;11.842;2024-01-15T10:21:50;8.35;;;3.42;;
30681;SDS011;17439;48.092;11.842;2024-01-15T10:24:17;8.00;;;3.75;;
30681;SDS011;17439;48.092;11.842;2024-01-15T10:26:43;10.57;;;3.08;;
30681;SDS011;17439;48.092;11.842;2024-01-15T10:29:10;9.82;;;4.32;;
30681;SDS011;17439;48.092;11.842;2024-01-15T10:31:37;4.80;;;2.30;;
30681;SDS011;17439;48.092;11.842;2024-01-15T10:34:11;8.18;;;3.45;;
30681;SDS011;17439;48.092;11.842;2024-01-15T10:36:39;5.05;;;2.17;;
30681;SDS011;17439;48.092;11.842;2024-01-15T10:39:06;6.22;;;3.05;;
30681;SDS011;17439;48.092;11.842;2024-01-15T10:41:33;6.80;;;2.83;;
30681;SDS011;17439;48.092;11.842;2024-01-15T10:44:00;5.55;;;2.60;;
30681;SDS011;17439;48.092;11.842;2024-01-15T10:46:26;5.15;;;2.17;;
30681;SDS011;17439;48.092;11.842;2024-01-15T10:48:54;8.27;;;2.70;;
30681;SDS011;17439;48.092;11.842;2024-01-15T10:51:21;7.63;;;2.53;;
30681;SDS011;17439;48.092;11.842;2024-01-15T10:53:48;7.63;;;2.47;;
30681;SDS011;17439;48.092;11.842;2024-01-15T10:56:15;4.78;;;2.17;;
30681;SDS011;17439;48.092;11.842;2024-01-15T10:58:42;8.85;;;2.95;;
30681;SDS011;17439;48.092;11.842;2024-01-15T11:01:09;5.80;;;2.13;;
30681;SDS011;17439;48.092;11.842;2024-01-15T11:03:36;3.57;;;1.93;;
30681;SDS011;17439;48.092;11.842;2024-01-15T11:06:15;5.75;;;2.00;;
30681;SDS011;17439;48.092;11.842;2024-01-15T11:08:42;4.25;;;1.65;;
30681;SDS011;17439;48.092;11.842;2024-01-15T11:11:09;3.03;;;1.73;;
30681;SDS011;17439;48.092;11.842;2024-01-15T11:16:03;5.55;;;1.92;;
30681;SDS011;17439;48.092;11.842;2024-01-15T11:18:35;4.40;;;1.65;;
30681;SDS011;17439;48.092;11.842;2024-01-15T11:32:00;5.38;;;2.45;;
30681;SDS011;17439;48.092;11.842;2024-01-15T11:37:20;4.05;;;1.98;;
30681;SDS011;17439;48.092;11.842;2024-01-15T11:39:47;2.80;;;1.53;;
30681;SDS011;17439;48.092;11.842;2024-01-15T11:42:14;3.90;;;1.52;;
30681;SDS011;17439;48.092;11.842;2024-01-15T11:44:41;4.03;;;1.73;;
30681;SDS011;17439;48.092;11.842;2024-01-15T11:47:09;2.80;;;1.08;;
30681;SDS011;17439;48.092;11.842;2024-01-15T11:52:31;5.38;;;1.75;;
30681;SDS011;17439;48.092;11.842;2024-01-15T11:55:16;3.08;;;1.50;;
30681;SDS011;17439;48.092;11.842;2024-01-15T11:57:52;4.07;;;1.52;;
30681;SDS011;17439;48.092;11.842;2024-01-15T12:00:20;3.53;;;1.60;;
30681;SDS011;17439;48.092;11.842;2024-01-15T12:02:48;3.55;;;1.90;;
30681;SDS011;17439;48.092;11.842;2024-01-15T12:05:16;3.55;;;1.55;;
30681;SDS011;17439;48.092;11.842;2024-01-15T12:07:48;5.43;;;2.05;;
30681;SDS011;17439;48.092;11.842;2024-01-15T12:10:19;6.82;;;2.35;;
30681;SDS011;17439;48.092;11.842;2024-01-15T12:12:53;3.50;;;2.08;;
30681;SDS011;17439;48.092;11.842;2024-01-15T12:15:24;5.20;;;1.90;;
30681;SDS011;17439;48.092;11.842;2024-01-15T12:17:52;2.33;;;1.20;;
30681;SDS011;17439;48.092;11.842;2024-01-15T12:20:21;1.95;;;1.30;;
30681;SDS011;17439;48.092;11.842;2024-01-15T12:22:47;4.10;;;2.22;;
30681;SDS011;17439;48.092;11.842;2024-01-15T12:25:26;6.18;;;1.83;;
30681;SDS011;17439;48.092;11.842;2024-01-15T12:27:55;2.80;;;1.40;;
30681;SDS011;17439;48.092;11.842;2024-01-15T12:30:22;2.88;;;1.70;;
30681;SDS011;17439;48.092;11.842;2024-01-15T12:32:50;3.28;;;1.60;;
30681;SDS011;17439;48.092;11.842;2024-01-15T12:35:17;4.00;;;1.30;;
30681;SDS011;17439;48.092;11.842;2024-01-15T12:37:43;3.50;;;1.48;;
30681;SDS011;17439;48.092;11.842;2024-01-15T12:40:10;3.27;;;1.83;;
30681;SDS011;17439;48.092;11.842;2024-01-15T12:42:39;4.43;;;2.13;;
30681;SDS011;17439;48.092;11.842;2024-01-15T12:45:06;12.25;;;2.28;;
30681;SDS011;17439;48.092;11.842;2024-01-15T12:47:34;5.72;;;1.50;;
30681;SDS011;17439;48.092;11.842;2024-01-15T12:50:00;3.97;;;1.70;;
30681;SDS011;17439;48.092;11.842;2024-01-15T12:52:41;6.05;;;2.05;;
30681;SDS011;17439;48.092;11.842;2024-01-15T12:55:08;2.92;;;1.25;;
30681;SDS011;17439;48.092;11.842;2024-01-15T12:57:36;1.85;;;1.20;;
30681;SDS011;17439;48.092;11.842;2024-01-15T13:00:03;6.90;;;2.22;;
30681;SDS011;17439;48.092;11.842;2024-01-15T13:02:31;5.63;;;1.95;;
30681;SDS011;17439;48.092;11.842;2024-01-15T13:04:58;3.97;;;1.58;;
30681;SDS011;17439;48.092;11.842;2024-01-15T13:07:25;5.07;;;1.90;;
30681;SDS011;17439;48.092;11.842;2024-01-15T13:09:52;3.63;;;1.80;;
30681;SDS011;17439;48.092;11.842;2024-01-15T13:12:19;6.85;;;1.73;;
30681;SDS011;17439;48.092;11.842;2024-01-15T13:14:47;4.45;;;1.33;;
30681;SDS011;17439;48.092;11.842;2024-01-15T13:17:13;3.78;;;1.50;;
30681;SDS011;17439;48.092;11.842;2024-01-15T13:19:40;4.18;;;1.92;;
30681;SDS011;17439;48.092;11.842;2024-01-15T13:22:07;3.30;;;1.65;;
30681;SDS011;17439;48.092;11.842;2024-01-15T13:24:35;4.00;;;2.25;;
30681;SDS011;17439;48.092;11.842;2024-01-15T13:27:02;5.68;;;2.40;;
30681;SDS011;17439;48.092;11.842;2024-01-15T13:29:29;3.77;;;2.07;;
30681;SDS011;17439;48.092;11.842;2024-01-15T13:31:56;4.72;;;1.52;;
30681;SDS011;17439;48.092;11.842;2024-01-15T13:34:24;4.65;;;2.08;;
30681;SDS011;17439;48.092;11.842;2024-01-15T13:36:50;3.85;;;2.22;;
30681;SDS011;17439;48.092;11.842;2024-01-15T13:39:17;4.95;;;1.92;;
30681;SDS011;17439;48.092;11.842;2024-01-15T13:41:44;4.60;;;1.70;;
30681;SDS011;17439;48.092;11.842;2024-01-15T13:44:11;4.20;;;2.00;;
30681;SDS011;17439;48.092;11.842;2024-01-15T13:46:37;5.97;;;1.77;;
30681;SDS011;17439;48.092;11.842;2024-01-15T13:49:04;4.93;;;2.25;;
30681;SDS011;17439;48.092;11.842;2024-01-15T13:51:31;6.63;;;2.28;;
30681;SDS011;17439;48.092;11.842;2024-01-15T13:53:58;7.28;;;1.85;;
30681;SDS011;17439;48.092;11.842;2024-01-15T13:56:25;6.05;;;2.08;;
30681;SDS011;17439;48.092;11.842;2024-01-15T13:58:51;4.80;;;2.10;;
30681;SDS011;17439;48.092;11.842;2024-01-15T14:01:18;3.30;;;1.63;;
30681;SDS011;17439;48.092;11.842;2024-01-15T14:03:45;5.70;;;2.22;;
30681;SDS011;17439;48.092;11.842;2024-01-15T14:06:12;5.82;;;2.72;;
30681;SDS011;17439;48.092;11.842;2024-01-15T14:08:38;5.40;;;1.98;;
30681;SDS011;17439;48.092;11.842;2024-01-15T14:11:05;7.18;;;2.28;;
30681;SDS011;17439;48.092;11.842;2024-01-15T14:13:32;5.53;;;2.00;;
30681;SDS011;17439;48.092;11.842;2024-01-15T14:15:59;6.63;;;2.05;;
30681;SDS011;17439;48.092;11.842;2024-01-15T14:18:26;6.20;;;2.00;;
30681;SDS011;17439;48.092;11.842;2024-01-15T14:20:58;3.83;;;1.83;;
30681;SDS011;17439;48.092;11.842;2024-01-15T14:23:24;5.53;;;2.45;;
30681;SDS011;17439;48.092;11.842;2024-01-15T14:25:51;3.33;;;2.10;;
30681;SDS011;17439;48.092;11.842;2024-01-15T14:28:18;4.55;;;1.77;;
30681;SDS011;17439;48.092;11.842;2024-01-15T14:30:44;5.00;;;2.80;;
30681;SDS011;17439;48.092;11.842;2024-01-15T14:33:11;4.85;;;1.92;;
30681;SDS011;17439;48.092;11.842;2024-01-15T14:35:38;5.50;;;2.13;;
30681;SDS011;17439;48.092;11.842;2024-01-15T14:38:05;3.78;;;1.75;;
30681;SDS011;17439;48.092;11.842;2024-01-15T14:40:32;6.50;;;2.25;;
30681;SDS011;17439;48.092;11.842;2024-01-15T14:42:58;4.75;;;2.35;;
30681;SDS011;17439;48.092;11.842;2024-01-15T14:45:25;5.03;;;1.90;;
30681;SDS011;17439;48.092;11.842;2024-01-15T14:47:52;5.05;;;1.85;;
30681;SDS011;17439;48.092;11.842;2024-01-15T14:50:19;5.57;;;2.10;;
30681;SDS011;17439;48.092;11.842;2024-01-15T14:52:46;8.40;;;1.80;;
30681;SDS011;17439;48.092;11.842;2024-01-15T14:55:12;3.30;;;1.65;;
30681;SDS011;17439;48.092;11.842;2024-01-15T14:57:39;4.22;;;1.75;;